sensor_id;sensor_type;location;lat;lon;timestamp;pressure;altitude;pressure_sealevel;temperature;humidity
24788;BME280;12883;52.662;5.196;2023-04-01T00:00:46;98978.78;;;11.07;100.00
24788;BME280;12883;52.662;5.196;2023-04-01T00:03:11;98977.41;;;11.04;100.00
24788;BME280;12883;52.662;5.196;2023-04-01T00:05:36;98984.09;;;11.07;100.00
24788;BME280;12883;52.662;5.196;2023-04-01T00:08:02;98981.34;;;11.02;100.00
24788;BME280;12883;52.662;5.196;2023-04-01T00:10:27;98979.50;;;11.02;100.00
24788;BME280;12883;52.662;5.196;2023-04-01T00:12:52;98980.06;;;11.04;100.00
24788;BME280;12883;52.662;5.196;2023-04-01T00:15:18;98985.69;;;11.08;100.00
24788;BME280;12883;52.662;5.196;2023-04-01T00:17:44;98986.16;;;11.05;100.00
24788;BME280;12883;52.662;5.196;2023-04-01T00:20:10;98988.81;;;11.05;100.00
24788;BME280;12883;52.662;5.196;2023-04-01T00:22:35;98981.66;;;11.05;100.00
24788;BME280;12883;52.662;5.196;2023-04-01T00:25:01;98988.81;;;11.05;100.00
24788;BME280;12883;52.662;5.196;2023-04-01T00:27:27;98987.75;;;11.06;100.00
24788;BME280;12883;52.662;5.196;2023-04-01T00:29:52;98990.19;;;11.07;100.00
24788;BME280;12883;52.662;5.196;2023-04-01T00:32:18;98989.63;;;11.05;100.00
24788;BME280;12883;52.662;5.196;2023-04-01T00:34:43;98967.91;;;10.87;100.00
24788;BME280;12883;52.662;5.196;2023-04-01T00:37:09;98987.22;;;11.04;100.00
24788;BME280;12883;52.662;5.196;2023-04-01T00:39:35;98994.41;;;11.03;100.00
24788;BME280;12883;52.662;5.196;2023-04-01T00:42:03;98994.94;;;11.05;100.00
24788;BME280;12883;52.662;5.196;2023-04-01T00:44:33;98995.41;;;11.02;100.00
24788;BME280;12883;52.662;5.196;2023-04-01T00:47:00;98999.94;;;11.02;100.00
24788;BME280;12883;52.662;5.196;2023-04-01T00:49:32;98991.44;;;11.00;100.00
24788;BME280;12883;52.662;5.196;2023-04-01T00:52:00;99007.34;;;11.00;100.00
24788;BME280;12883;52.662;5.196;2023-04-01T00:54:27;99016.09;;;11.00;100.00
24788;BME280;12883;52.662;5.196;2023-04-01T00:57:03;99007.34;;;11.00;100.00
24788;BME280;12883;52.662;5.196;2023-04-01T00:59:42;98999.63;;;10.98;100.00
24788;BME280;12883;52.662;5.196;2023-04-01T01:02:10;98992.34;;;10.89;100.00
24788;BME280;12883;52.662;5.196;2023-04-01T01:04:36;99014.50;;;10.99;100.00
24788;BME280;12883;52.662;5.196;2023-04-01T01:10:23;99004.69;;;11.00;100.00
24788;BME280;12883;52.662;5.196;2023-04-01T01:15:47;99013.69;;;10.99;100.00
24788;BME280;12883;52.662;5.196;2023-04-01T01:21:34;99017.88;;;10.95;100.00
24788;BME280;12883;52.662;5.196;2023-04-01T01:37:31;99020.78;;;10.93;100.00
24788;BME280;12883;52.662;5.196;2023-04-01T01:40:00;99028.59;;;11.00;100.00
24788;BME280;12883;52.662;5.196;2023-04-01T01:42:29;99032.75;;;10.96;100.00
24788;BME280;12883;52.662;5.196;2023-04-01T01:44:56;99001.78;;;10.80;100.00
24788;BME280;12883;52.662;5.196;2023-04-01T01:47:25;99045.22;;;10.95;100.00
24788;BME280;12883;52.662;5.196;2023-04-01T01:49:51;99036.47;;;10.95;100.00
24788;BME280;12883;52.662;5.196;2023-04-01T01:52:18;99042.00;;;10.93;100.00
24788;BME280;12883;52.662;5.196;2023-04-01T01:54:55;99051.84;;;10.93;100.00
24788;BME280;12883;52.662;5.196;2023-04-01T01:57:33;99043.28;;;10.91;100.00
24788;BME280;12883;52.662;5.196;2023-04-01T02:00:07;99043.59;;;10.94;100.00
24788;BME280;12883;52.662;5.196;2023-04-01T02:02:39;99047.88;;;10.95;100.00
24788;BME280;12883;52.662;5.196;2023-04-01T02:05:07;99053.50;;;10.99;100.00
24788;BME280;12883;52.662;5.196;2023-04-01T02:07:35;99057.19;;;10.98;100.00
24788;BME280;12883;52.662;5.196;2023-04-01T02:10:02;99053.50;;;10.99;100.00
24788;BME280;12883;52.662;5.196;2023-04-01T02:12:29;99055.91;;;11.00;100.00
24788;BME280;12883;52.662;5.196;2023-04-01T02:15:08;99061.44;;;10.99;100.00
24788;BME280;12883;52.662;5.196;2023-04-01T02:17:39;99059.84;;;10.98;100.00
24788;BME280;12883;52.662;5.196;2023-04-01T02:20:19;99066.22;;;10.97;100.00
24788;BME280;12883;52.662;5.196;2023-04-01T02:22:56;99069.91;;;10.96;100.00
24788;BME280;12883;52.662;5.196;2023-04-01T02:25:29;99077.88;;;10.96;100.00
24788;BME280;12883;52.662;5.196;2023-04-01T02:27:57;99072.81;;;10.94;100.00
24788;BME280;12883;52.662;5.196;2023-04-01T02:30:24;99063.97;;;10.89;100.00
24788;BME280;12883;52.662;5.196;2023-04-01T02:32:50;99085.28;;;10.94;100.00
24788;BME280;12883;52.662;5.196;2023-04-01T02:35:16;99070.34;;;10.88;100.00
24788;BME280;12883;52.662;5.196;2023-04-01T02:37:44;99087.31;;;10.87;100.00
24788;BME280;12883;52.662;5.196;2023-04-01T02:40:12;99093.56;;;10.81;100.00
24788;BME280;12883;52.662;5.196;2023-04-01T02:42:38;99091.25;;;10.84;100.00
24788;BME280;12883;52.662;5.196;2023-04-01T02:45:04;99089.31;;;10.80;100.00
24788;BME280;12883;52.662;5.196;2023-04-01T02:47:30;99091.97;;;10.80;100.00
24788;BME280;12883;52.662;5.196;2023-04-01T02:49:55;99109.41;;;10.76;100.00
24788;BME280;12883;52.662;5.196;2023-04-01T02:52:27;99115.53;;;10.76;100.00
24788;BME280;12883;52.662;5.196;2023-04-01T02:54:54;99105.16;;;10.75;100.00
24788;BME280;12883;52.662;5.196;2023-04-01T02:57:20;99098.00;;;10.59;100.00
24788;BME280;12883;52.662;5.196;2023-04-01T02:59:46;99111.59;;;10.79;100.00
24788;BME280;12883;52.662;5.196;2023-04-01T03:02:11;99115.53;;;10.76;100.00
24788;BME280;12883;52.662;5.196;2023-04-01T03:04:36;99117.91;;;10.78;100.00
24788;BME280;12883;52.662;5.196;2023-04-01T03:07:02;99121.72;;;10.82;100.00
24788;BME280;12883;52.662;5.196;2023-04-01T03:09:27;99129.13;;;10.80;100.00
24788;BME280;12883;52.662;5.196;2023-04-01T03:11:53;99116.16;;;10.67;100.00
24788;BME280;12883;52.662;5.196;2023-04-01T03:14:19;99135.22;;;10.80;100.00
24788;BME280;12883;52.662;5.196;2023-04-01T03:16:44;99136.03;;;10.81;100.00
24788;BME280;12883;52.662;5.196;2023-04-01T03:19:10;99140.59;;;10.85;100.00
24788;BME280;12883;52.662;5.196;2023-04-01T03:21:35;99149.38;;;10.86;100.00
24788;BME280;12883;52.662;5.196;2023-04-01T03:24:00;99152.03;;;10.86;100.00
24788;BME280;12883;52.662;5.196;2023-04-01T03:26:26;99153.63;;;10.87;100.00
24788;BME280;12883;52.662;5.196;2023-04-01T03:28:55;99158.94;;;10.87;100.00
24788;BME280;12883;52.662;5.196;2023-04-01T03:31:21;99162.16;;;10.89;100.00
24788;BME280;12883;52.662;5.196;2023-04-01T03:33:46;99170.84;;;10.84;100.00
24788;BME280;12883;52.662;5.196;2023-04-01T03:36:12;99160.22;;;10.68;100.00
24788;BME280;12883;52.662;5.196;2023-04-01T03:38:40;99177.19;;;10.83;100.00
24788;BME280;12883;52.662;5.196;2023-04-01T03:41:06;99169.97;;;10.79;100.00
24788;BME280;12883;52.662;5.196;2023-04-01T03:43:32;99171.81;;;10.78;100.00
24788;BME280;12883;52.662;5.196;2023-04-01T03:45:57;99191.75;;;10.81;100.00
24788;BME280;12883;52.662;5.196;2023-04-01T03:48:23;99188.03;;;10.82;100.00
24788;BME280;12883;52.662;5.196;2023-04-01T03:50:50;99181.69;;;10.83;100.00
24788;BME280;12883;52.662;5.196;2023-04-01T03:53:15;99191.75;;;10.81;100.00
24788;BME280;12883;52.662;5.196;2023-04-01T03:55:41;99192.06;;;10.84;100.00
24788;BME280;12883;52.662;5.196;2023-04-01T03:58:07;99196.81;;;10.82;100.00
24788;BME280;12883;52.662;5.196;2023-04-01T04:00:32;99195.78;;;10.83;100.00
24788;BME280;12883;52.662;5.196;2023-04-01T04:02:58;99217.00;;;10.83;100.00
24788;BME280;12883;52.662;5.196;2023-04-01T04:05:24;99208.78;;;10.85;100.00
24788;BME280;12883;52.662;5.196;2023-04-01T04:07:51;99205.00;;;10.81;100.00
24788;BME280;12883;52.662;5.196;2023-04-01T04:10:16;99200.09;;;10.73;100.00
24788;BME280;12883;52.662;5.196;2023-04-01T04:12:42;99215.41;;;10.82;100.00
24788;BME280;12883;52.662;5.196;2023-04-01T04:15:08;99221.50;;;10.83;100.00
24788;BME280;12883;52.662;5.196;2023-04-01T04:17:34;99199.19;;;10.67;100.00
24788;BME280;12883;52.662;5.196;2023-04-01T04:19:59;99226.56;;;10.84;100.00
24788;BME280;12883;52.662;5.196;2023-04-01T04:22:25;99221.50;;;10.83;100.00
24788;BME280;12883;52.662;5.196;2023-04-01T04:24:50;99224.13;;;10.83;100.00
24788;BME280;12883;52.662;5.196;2023-04-01T04:27:15;99231.31;;;10.82;100.00
24788;BME280;12883;52.662;5.196;2023-04-01T04:29:41;99237.41;;;10.83;100.00
24788;BME280;12883;52.662;5.196;2023-04-01T04:32:06;99247.22;;;10.82;100.00
24788;BME280;12883;52.662;5.196;2023-04-01T04:34:32;99238.22;;;10.83;100.00
24788;BME280;12883;52.662;5.196;2023-04-01T04:36:57;99250.91;;;10.81;100.00
24788;BME280;12883;52.662;5.196;2023-04-01T04:39:23;99254.38;;;10.82;100.00
24788;BME280;12883;52.662;5.196;2023-04-01T04:41:48;99252.53;;;10.82;100.00
24788;BME280;12883;52.662;5.196;2023-04-01T04:44:13;99249.28;;;10.80;100.00
24788;BME280;12883;52.662;5.196;2023-04-01T04:46:39;99265.47;;;10.79;100.00
24788;BME280;12883;52.662;5.196;2023-04-01T04:49:05;99273.44;;;10.79;100.00
24788;BME280;12883;52.662;5.196;2023-04-01T04:51:31;99280.25;;;10.75;100.00
24788;BME280;12883;52.662;5.196;2023-04-01T04:53:59;99287.72;;;10.78;100.00
24788;BME280;12883;52.662;5.196;2023-04-01T04:56:25;99267.28;;;10.62;100.00
24788;BME280;12883;52.662;5.196;2023-04-01T04:58:51;99282.81;;;10.70;100.00
24788;BME280;12883;52.662;5.196;2023-04-01T05:01:17;99297.22;;;10.74;100.00
24788;BME280;12883;52.662;5.196;2023-04-01T05:03:43;99304.34;;;10.73;100.00
24788;BME280;12883;52.662;5.196;2023-04-01T05:06:10;99301.47;;;10.75;100.00
24788;BME280;12883;52.662;5.196;2023-04-01T05:08:37;99302.53;;;10.74;100.00
24788;BME280;12883;52.662;5.196;2023-04-01T05:11:04;99309.91;;;10.72;100.00
24788;BME280;12883;52.662;5.196;2023-04-01T05:13:31;99315.44;;;10.70;100.00
24788;BME280;12883;52.662;5.196;2023-04-01T05:15:56;99325.84;;;10.72;100.00
24788;BME280;12883;52.662;5.196;2023-04-01T05:18:22;99326.06;;;10.70;100.00
24788;BME280;12883;52.662;5.196;2023-04-01T05:20:52;99325.84;;;10.72;100.00
24788;BME280;12883;52.662;5.196;2023-04-01T05:23:18;99343.69;;;10.76;100.00
24788;BME280;12883;52.662;5.196;2023-04-01T05:25:46;99334.81;;;10.71;100.00
24788;BME280;12883;52.662;5.196;2023-04-01T05:28:11;99341.38;;;10.80;100.00
24788;BME280;12883;52.662;5.196;2023-04-01T05:30:39;99344.03;;;10.80;100.00
24788;BME280;12883;52.662;5.196;2023-04-01T05:33:05;99340.78;;;10.78;100.00
24788;BME280;12883;52.662;5.196;2023-04-01T05:35:30;99352.56;;;10.82;100.00
24788;BME280;12883;52.662;5.196;2023-04-01T05:37:55;99353.59;;;10.81;100.00
24788;BME280;12883;52.662;5.196;2023-04-01T05:40:21;99352.56;;;10.82;100.00
24788;BME280;12883;52.662;5.196;2023-04-01T05:42:46;99371.69;;;10.84;100.00
24788;BME280;12883;52.662;5.196;2023-04-01T05:45:11;99369.03;;;10.84;100.00
24788;BME280;12883;52.662;5.196;2023-04-01T05:47:37;99378.59;;;10.85;100.00
24788;BME280;12883;52.662;5.196;2023-04-01T05:50:02;99365.09;;;10.86;100.00
24788;BME280;12883;52.662;5.196;2023-04-01T05:52:27;99375.72;;;10.86;100.00
24788;BME280;12883;52.662;5.196;2023-04-01T05:54:53;99375.72;;;10.86;100.00
24788;BME280;12883;52.662;5.196;2023-04-01T05:57:18;99374.66;;;10.87;100.00
24788;BME280;12883;52.662;5.196;2023-04-01T05:59:43;99399.94;;;10.90;100.00
24788;BME280;12883;52.662;5.196;2023-04-01T06:02:10;99401.53;;;10.91;100.00
24788;BME280;12883;52.662;5.196;2023-04-01T06:04:39;99394.16;;;10.93;100.00
24788;BME280;12883;52.662;5.196;2023-04-01T06:07:14;99399.22;;;10.94;100.00
24788;BME280;12883;52.662;5.196;2023-04-01T06:09:40;99406.97;;;10.96;100.00
24788;BME280;12883;52.662;5.196;2023-04-01T06:28:48;99433.84;;;10.99;100.00
24788;BME280;12883;52.662;5.196;2023-04-01T06:31:51;99433.34;;;11.02;100.00
24788;BME280;12883;52.662;5.196;2023-04-01T06:41:00;99458.16;;;11.08;100.00
24788;BME280;12883;52.662;5.196;2023-04-01T06:46:04;99464.75;;;11.05;100.00
24788;BME280;12883;52.662;5.196;2023-04-01T06:54:09;99472.00;;;11.10;100.00
24788;BME280;12883;52.662;5.196;2023-04-01T06:56:37;99476.03;;;11.12;100.00
24788;BME280;12883;52.662;5.196;2023-04-01T06:59:10;99472.69;;;11.17;100.00
24788;BME280;12883;52.662;5.196;2023-04-01T07:01:40;99478.31;;;11.20;100.00
24788;BME280;12883;52.662;5.196;2023-04-01T07:06:39;99487.66;;;11.23;100.00
24788;BME280;12883;52.662;5.196;2023-04-01T07:09:15;99496.69;;;11.22;100.00
24788;BME280;12883;52.662;5.196;2023-04-01T07:11:42;99494.59;;;11.24;100.00
24788;BME280;12883;52.662;5.196;2023-04-01T07:14:20;99498.06;;;11.24;100.00
24788;BME280;12883;52.662;5.196;2023-04-01T07:16:55;99493.13;;;11.16;100.00
24788;BME280;12883;52.662;5.196;2023-04-01T07:19:45;99506.47;;;11.21;100.00
24788;BME280;12883;52.662;5.196;2023-04-01T07:22:34;99435.50;;;10.77;100.00
24788;BME280;12883;52.662;5.196;2023-04-01T07:27:38;99521.03;;;11.30;100.00
24788;BME280;12883;52.662;5.196;2023-04-01T07:30:13;99521.25;;;11.29;100.00
24788;BME280;12883;52.662;5.196;2023-04-01T07:35:31;99532.91;;;11.28;100.00
24788;BME280;12883;52.662;5.196;2023-04-01T07:38:33;99543.06;;;11.31;100.00
24788;BME280;12883;52.662;5.196;2023-04-01T07:41:23;99541.78;;;11.33;100.00
24788;BME280;12883;52.662;5.196;2023-04-01T07:44:10;99540.19;;;11.32;100.00
24788;BME280;12883;52.662;5.196;2023-04-01T07:49:26;99552.38;;;11.45;100.00
24788;BME280;12883;52.662;5.196;2023-04-01T07:55:24;99566.00;;;11.48;100.00
24788;BME280;12883;52.662;5.196;2023-04-01T07:57:59;99563.66;;;11.52;100.00
24788;BME280;12883;52.662;5.196;2023-04-01T08:00:31;99568.91;;;11.58;100.00
24788;BME280;12883;52.662;5.196;2023-04-01T08:03:30;99573.72;;;11.61;100.00
24788;BME280;12883;52.662;5.196;2023-04-01T08:06:37;99576.88;;;11.58;100.00
24788;BME280;12883;52.662;5.196;2023-04-01T08:09:21;99581.00;;;11.66;100.00
24788;BME280;12883;52.662;5.196;2023-04-01T08:15:33;99594.75;;;11.63;100.00
24788;BME280;12883;52.662;5.196;2023-04-01T08:20:48;99605.03;;;11.59;100.00
24788;BME280;12883;52.662;5.196;2023-04-01T08:23:18;99604.78;;;11.61;100.00
24788;BME280;12883;52.662;5.196;2023-04-01T08:25:56;99608.94;;;11.57;100.00
24788;BME280;12883;52.662;5.196;2023-04-01T08:31:22;99614.47;;;11.55;100.00
24788;BME280;12883;52.662;5.196;2023-04-01T08:33:53;99623.38;;;11.61;100.00
24788;BME280;12883;52.662;5.196;2023-04-01T08:36:23;99616.34;;;11.55;100.00
24788;BME280;12883;52.662;5.196;2023-04-01T08:39:07;99626.16;;;11.66;100.00
24788;BME280;12883;52.662;5.196;2023-04-01T08:45:05;99644.19;;;11.64;100.00
24788;BME280;12883;52.662;5.196;2023-04-01T09:20:47;99682.75;;;11.78;100.00
24788;BME280;12883;52.662;5.196;2023-04-01T09:28:42;99700.06;;;11.92;100.00
24788;BME280;12883;52.662;5.196;2023-04-01T09:36:45;99706.47;;;12.19;100.00
24788;BME280;12883;52.662;5.196;2023-04-01T09:44:42;99699.44;;;12.41;100.00
24788;BME280;12883;52.662;5.196;2023-04-01T10:11:56;99748.94;;;12.70;100.00
24788;BME280;12883;52.662;5.196;2023-04-01T10:18:09;99763.06;;;12.70;100.00
24788;BME280;12883;52.662;5.196;2023-04-01T10:23:06;99773.81;;;12.64;100.00
24788;BME280;12883;52.662;5.196;2023-04-01T10:28:40;99771.16;;;12.64;100.00
24788;BME280;12883;52.662;5.196;2023-04-01T10:48:18;99773.50;;;12.60;100.00
24788;BME280;12883;52.662;5.196;2023-04-01T10:51:22;99794.50;;;12.73;100.00
24788;BME280;12883;52.662;5.196;2023-04-01T10:59:58;99795.44;;;12.67;100.00
24788;BME280;12883;52.662;5.196;2023-04-01T11:08:26;99808.53;;;12.69;100.00
24788;BME280;12883;52.662;5.196;2023-04-01T11:26:08;99840.63;;;12.51;100.00
24788;BME280;12883;52.662;5.196;2023-04-01T11:28:50;99842.03;;;12.53;100.00
24788;BME280;12883;52.662;5.196;2023-04-01T11:32:24;99843.97;;;12.58;100.00
24788;BME280;12883;52.662;5.196;2023-04-01T11:37:32;99863.09;;;12.43;100.00
24788;BME280;12883;52.662;5.196;2023-04-01T11:40:14;99857.66;;;12.50;100.00
24788;BME280;12883;52.662;5.196;2023-04-01T11:45:53;99872.47;;;12.46;100.00
24788;BME280;12883;52.662;5.196;2023-04-01T11:51:29;99877.22;;;12.32;100.00
24788;BME280;12883;52.662;5.196;2023-04-01T11:59:51;99887.91;;;12.72;100.00
24788;BME280;12883;52.662;5.196;2023-04-01T12:05:26;99885.28;;;12.60;100.00
24788;BME280;12883;52.662;5.196;2023-04-01T12:10:28;99910.84;;;12.73;100.00
24788;BME280;12883;52.662;5.196;2023-04-01T12:16:26;99915.22;;;12.67;100.00
24788;BME280;12883;52.662;5.196;2023-04-01T12:19:09;99923.47;;;12.66;100.00
24788;BME280;12883;52.662;5.196;2023-04-01T12:49:00;99972.41;;;12.30;100.00
24788;BME280;12883;52.662;5.196;2023-04-01T12:51:46;99968.84;;;12.36;100.00
24788;BME280;12883;52.662;5.196;2023-04-01T13:08:42;100004.13;;;12.20;100.00
24788;BME280;12883;52.662;5.196;2023-04-01T13:19:04;100031.06;;;12.24;100.00
24788;BME280;12883;52.662;5.196;2023-04-01T13:27:24;100043.13;;;12.38;100.00
24788;BME280;12883;52.662;5.196;2023-04-01T13:33:01;100001.88;;;12.06;100.00
24788;BME280;12883;52.662;5.196;2023-04-01T13:39:28;100058.47;;;12.36;100.00
24788;BME280;12883;52.662;5.196;2023-04-01T13:42:01;100064.72;;;12.30;100.00
24788;BME280;12883;52.662;5.196;2023-04-01T13:44:36;100070.38;;;12.22;100.00
24788;BME280;12883;52.662;5.196;2023-04-01T13:55:44;100087.50;;;12.26;100.00
24788;BME280;12883;52.662;5.196;2023-04-01T13:58:43;100088.53;;;12.25;100.00
24788;BME280;12883;52.662;5.196;2023-04-01T14:01:31;100098.69;;;12.16;100.00
24788;BME280;12883;52.662;5.196;2023-04-01T14:04:26;100105.84;;;12.16;100.00
24788;BME280;12883;52.662;5.196;2023-04-01T14:07:05;100105.84;;;12.16;100.00
24788;BME280;12883;52.662;5.196;2023-04-01T14:15:41;100117.09;;;12.18;100.00
24788;BME280;12883;52.662;5.196;2023-04-01T14:20:40;100162.00;;;12.08;100.00
24788;BME280;12883;52.662;5.196;2023-04-01T14:26:26;100149.00;;;12.18;100.00
24788;BME280;12883;52.662;5.196;2023-04-01T14:29:31;100155.28;;;12.05;100.00
24788;BME280;12883;52.662;5.196;2023-04-01T14:35:05;100170.81;;;12.08;100.00
24788;BME280;12883;52.662;5.196;2023-04-01T14:43:38;100180.13;;;12.29;100.00
24788;BME280;12883;52.662;5.196;2023-04-01T14:49:24;100200.06;;;12.08;100.00
24788;BME280;12883;52.662;5.196;2023-04-01T14:52:09;100200.25;;;12.25;100.00
24788;BME280;12883;52.662;5.196;2023-04-01T14:54:41;100203.88;;;12.30;100.00
24788;BME280;12883;52.662;5.196;2023-04-01T14:57:24;100211.16;;;12.35;100.00
24788;BME280;12883;52.662;5.196;2023-04-01T15:00:15;100219.00;;;12.30;100.00
24788;BME280;12883;52.662;5.196;2023-04-01T15:05:50;100223.75;;;12.28;100.00
24788;BME280;12883;52.662;5.196;2023-04-01T15:11:19;100239.72;;;12.28;100.00
24788;BME280;12883;52.662;5.196;2023-04-01T15:16:57;100265.56;;;12.21;100.00
24788;BME280;12883;52.662;5.196;2023-04-01T15:22:19;100270.16;;;12.14;100.00
24788;BME280;12883;52.662;5.196;2023-04-01T15:28:00;100275.31;;;12.09;100.00
24788;BME280;12883;52.662;5.196;2023-04-01T15:36:04;100289.25;;;12.11;100.00
24788;BME280;12883;52.662;5.196;2023-04-01T15:41:40;100289.81;;;11.95;100.00
24788;BME280;12883;52.662;5.196;2023-04-01T15:47:08;100320.38;;;11.86;100.00
24788;BME280;12883;52.662;5.196;2023-04-01T15:53:24;100331.59;;;11.88;100.00
24788;BME280;12883;52.662;5.196;2023-04-01T16:01:29;100350.94;;;11.77;100.00
24788;BME280;12883;52.662;5.196;2023-04-01T16:04:11;100358.28;;;11.75;100.00
24788;BME280;12883;52.662;5.196;2023-04-01T16:07:48;100360.81;;;11.70;100.00
24788;BME280;12883;52.662;5.196;2023-04-01T16:12:10;100369.19;;;11.67;100.00
24788;BME280;12883;52.662;5.196;2023-04-01T16:17:56;100386.69;;;11.50;100.00
24788;BME280;12883;52.662;5.196;2023-04-01T16:26:25;100398.63;;;11.34;100.00
24788;BME280;12883;52.662;5.196;2023-04-01T16:29:04;100409.06;;;11.36;100.00
24788;BME280;12883;52.662;5.196;2023-04-01T16:31:52;100373.88;;;11.09;100.00
24788;BME280;12883;52.662;5.196;2023-04-01T16:37:46;100413.28;;;11.12;100.00
24788;BME280;12883;52.662;5.196;2023-04-01T16:40:37;100425.31;;;11.15;100.00
24788;BME280;12883;52.662;5.196;2023-04-01T16:51:17;100468.84;;;11.07;100.00
24788;BME280;12883;52.662;5.196;2023-04-01T16:53:48;100467.03;;;11.08;100.00
24788;BME280;12883;52.662;5.196;2023-04-01T16:56:22;100475.63;;;11.03;100.00
24788;BME280;12883;52.662;5.196;2023-04-01T17:01:48;100493.84;;;10.87;100.00
24788;BME280;12883;52.662;5.196;2023-04-01T17:04:45;100496.06;;;10.90;100.00
24788;BME280;12883;52.662;5.196;2023-04-01T17:07:53;100496.91;;;10.90;100.00
24788;BME280;12883;52.662;5.196;2023-04-01T17:10:27;100500.19;;;10.86;100.00
24788;BME280;12883;52.662;5.196;2023-04-01T17:16:04;100520.63;;;10.79;100.00
24788;BME280;12883;52.662;5.196;2023-04-01T17:21:16;100532.06;;;10.73;100.00
24788;BME280;12883;52.662;5.196;2023-04-01T17:23:52;100526.13;;;10.71;100.00
24788;BME280;12883;52.662;5.196;2023-04-01T17:26:41;100540.63;;;10.62;100.00
24788;BME280;12883;52.662;5.196;2023-04-01T17:40:00;100581.69;;;10.53;100.00
24788;BME280;12883;52.662;5.196;2023-04-01T17:43:13;100587.56;;;10.42;100.00
24788;BME280;12883;52.662;5.196;2023-04-01T17:48:53;100603.50;;;10.42;100.00
24788;BME280;12883;52.662;5.196;2023-04-01T17:59:47;100633.88;;;10.26;100.00
24788;BME280;12883;52.662;5.196;2023-04-01T18:10:25;100671.97;;;10.06;100.00
24788;BME280;12883;52.662;5.196;2023-04-01T18:16:02;100675.97;;;10.02;100.00
24788;BME280;12883;52.662;5.196;2023-04-01T18:18:58;100691.25;;;9.93;100.00
24788;BME280;12883;52.662;5.196;2023-04-01T18:22:10;100695.13;;;9.91;100.00
24788;BME280;12883;52.662;5.196;2023-04-01T18:30:32;100700.97;;;9.80;100.00
24788;BME280;12883;52.662;5.196;2023-04-01T18:33:18;100717.97;;;9.92;100.00
24788;BME280;12883;52.662;5.196;2023-04-01T18:35:53;100727.47;;;9.80;100.00
24788;BME280;12883;52.662;5.196;2023-04-01T18:38:36;100730.53;;;9.77;100.00
24788;BME280;12883;52.662;5.196;2023-04-01T18:41:17;100751.31;;;9.80;100.00
24788;BME280;12883;52.662;5.196;2023-04-01T18:43:56;100740.72;;;9.80;100.00
24788;BME280;12883;52.662;5.196;2023-04-01T18:51:56;100761.06;;;9.73;100.00
24788;BME280;12883;52.662;5.196;2023-04-01T18:54:30;100767.78;;;9.69;100.00
24788;BME280;12883;52.662;5.196;2023-04-01T18:57:14;100774.09;;;9.68;100.00
24788;BME280;12883;52.662;5.196;2023-04-01T18:59:53;100774.47;;;9.65;100.00
24788;BME280;12883;52.662;5.196;2023-04-01T19:02:36;100783.84;;;9.61;100.00
24788;BME280;12883;52.662;5.196;2023-04-01T19:05:17;100787.28;;;9.61;100.00
24788;BME280;12883;52.662;5.196;2023-04-01T19:07:47;100794.53;;;9.53;100.00
24788;BME280;12883;52.662;5.196;2023-04-01T19:15:58;100828.97;;;9.53;100.00
24788;BME280;12883;52.662;5.196;2023-04-01T19:18:49;100833.47;;;9.52;100.00
24788;BME280;12883;52.662;5.196;2023-04-01T19:21:19;100835.88;;;9.48;100.00
24788;BME280;12883;52.662;5.196;2023-04-01T19:24:02;100841.00;;;9.49;100.00
24788;BME280;12883;52.662;5.196;2023-04-01T19:26:36;100848.41;;;9.39;100.00
24788;BME280;12883;52.662;5.196;2023-04-01T19:31:51;100866.78;;;9.41;100.00
24788;BME280;12883;52.662;5.196;2023-04-01T19:37:44;100884.25;;;9.35;100.00
24788;BME280;12883;52.662;5.196;2023-04-01T19:43:11;100893.97;;;9.28;100.00
24788;BME280;12883;52.662;5.196;2023-04-01T19:45:51;100899.00;;;9.23;100.00
24788;BME280;12883;52.662;5.196;2023-04-01T19:51:09;100902.53;;;9.30;100.00
24788;BME280;12883;52.662;5.196;2023-04-01T19:56:33;100923.84;;;9.22;100.00
24788;BME280;12883;52.662;5.196;2023-04-01T20:01:58;100930.88;;;9.15;100.00
24788;BME280;12883;52.662;5.196;2023-04-01T20:04:45;100905.84;;;8.97;100.00
24788;BME280;12883;52.662;5.196;2023-04-01T20:07:27;100950.59;;;9.13;100.00
24788;BME280;12883;52.662;5.196;2023-04-01T20:10:22;100962.66;;;9.15;100.00
24788;BME280;12883;52.662;5.196;2023-04-01T20:15:27;100974.44;;;9.13;100.00
24788;BME280;12883;52.662;5.196;2023-04-01T20:17:57;100977.97;;;9.05;100.00
24788;BME280;12883;52.662;5.196;2023-04-01T20:20:27;100977.19;;;9.05;100.00
24788;BME280;12883;52.662;5.196;2023-04-01T20:23:11;100977.34;;;9.03;100.00
24788;BME280;12883;52.662;5.196;2023-04-01T20:26:13;100986.94;;;9.04;100.00
24788;BME280;12883;52.662;5.196;2023-04-01T20:28:44;101007.88;;;8.99;100.00
24788;BME280;12883;52.662;5.196;2023-04-01T20:33:50;101018.69;;;9.04;100.00
24788;BME280;12883;52.662;5.196;2023-04-01T20:39:30;100992.63;;;8.72;100.00
24788;BME280;12883;52.662;5.196;2023-04-01T20:51:06;101054.31;;;8.87;100.00
24788;BME280;12883;52.662;5.196;2023-04-01T20:56:56;101054.41;;;8.79;100.00
24788;BME280;12883;52.662;5.196;2023-04-01T21:02:19;101068.97;;;8.75;100.00
24788;BME280;12883;52.662;5.196;2023-04-01T21:21:43;101110.22;;;8.70;100.00
24788;BME280;12883;52.662;5.196;2023-04-01T21:30:00;101125.97;;;8.63;100.00
24788;BME280;12883;52.662;5.196;2023-04-01T21:32:45;101130.16;;;8.58;100.00
24788;BME280;12883;52.662;5.196;2023-04-01T21:35:31;101137.16;;;8.51;100.00
24788;BME280;12883;52.662;5.196;2023-04-01T21:41:12;101151.47;;;8.56;100.00
24788;BME280;12883;52.662;5.196;2023-04-01T22:00:09;101166.44;;;8.27;100.00
24788;BME280;12883;52.662;5.196;2023-04-01T22:06:00;101203.19;;;8.36;100.00
24788;BME280;12883;52.662;5.196;2023-04-01T22:13:59;101193.84;;;8.18;100.00